TAF EHMG
METAR EHMG
EHMG 082125Z AUTO 19029KT 9999 FEW008 SCT017 BKN037 07/05 Q0998=
EHMG 082055Z AUTO 19030KT 9000 FEW008 SCT015 BKN020 07/04 Q0998=
EHMG 082025Z AUTO 19031KT 9000 -DZ FEW010 FEW015CB SCT019 BKN029 07/04 Q0997 REDZ=
EHMG 081955Z AUTO 18032KT 9999 FEW010 FEW015CB SCT018 BKN022 06/04 Q0997=
EHMG 081925Z AUTO 18032KT 8000 -RA FEW007 SCT012 FEW015CB BKN017 06/04 Q0997=
WC EHMG
WS EHMG
WV EHMG